sensor_id;sensor_type;location;lat;lon;timestamp;P1;durP1;ratioP1;P2;durP2;ratioP2
39738;SDS011;25422;48.286;8.484;2023-05-29T00:00:29;12.52;;;7.15;;
39738;SDS011;25422;48.286;8.484;2023-05-29T00:02:55;13.23;;;6.47;;
39738;SDS011;25422;48.286;8.484;2023-05-29T00:05:20;16.02;;;7.55;;
39738;SDS011;25422;48.286;8.484;2023-05-29T00:07:46;11.63;;;6.55;;
39738;SDS011;25422;48.286;8.484;2023-05-29T00:10:11;13.88;;;7.32;;
39738;SDS011;25422;48.286;8.484;2023-05-29T00:12:37;12.23;;;6.72;;
39738;SDS011;25422;48.286;8.484;2023-05-29T00:15:04;10.80;;;6.95;;
39738;SDS011;25422;48.286;8.484;2023-05-29T00:17:30;10.95;;;6.88;;
39738;SDS011;25422;48.286;8.484;2023-05-29T00:19:59;8.80;;;6.18;;
39738;SDS011;25422;48.286;8.484;2023-05-29T00:22:26;9.25;;;5.82;;
39738;SDS011;25422;48.286;8.484;2023-05-29T00:24:52;10.23;;;6.43;;
39738;SDS011;25422;48.286;8.484;2023-05-29T00:27:17;11.18;;;6.88;;
39738;SDS011;25422;48.286;8.484;2023-05-29T00:29:43;13.88;;;7.85;;
39738;SDS011;25422;48.286;8.484;2023-05-29T00:32:09;12.73;;;7.68;;
39738;SDS011;25422;48.286;8.484;2023-05-29T00:34:34;11.70;;;6.88;;
39738;SDS011;25422;48.286;8.484;2023-05-29T00:37:00;13.27;;;6.78;;
39738;SDS011;25422;48.286;8.484;2023-05-29T00:39:26;13.30;;;6.70;;
39738;SDS011;25422;48.286;8.484;2023-05-29T00:41:52;16.45;;;7.93;;
39738;SDS011;25422;48.286;8.484;2023-05-29T00:44:18;12.55;;;7.00;;
39738;SDS011;25422;48.286;8.484;2023-05-29T00:46:44;9.98;;;6.15;;
39738;SDS011;25422;48.286;8.484;2023-05-29T00:49:11;10.38;;;6.15;;
39738;SDS011;25422;48.286;8.484;2023-05-29T00:51:37;8.75;;;5.72;;
39738;SDS011;25422;48.286;8.484;2023-05-29T00:54:04;11.32;;;6.00;;
39738;SDS011;25422;48.286;8.484;2023-05-29T00:56:31;11.93;;;6.32;;
39738;SDS011;25422;48.286;8.484;2023-05-29T00:58:57;11.73;;;6.40;;
39738;SDS011;25422;48.286;8.484;2023-05-29T01:01:23;10.52;;;5.63;;
39738;SDS011;25422;48.286;8.484;2023-05-29T01:03:49;15.63;;;6.60;;
39738;SDS011;25422;48.286;8.484;2023-05-29T01:06:18;11.35;;;6.82;;
39738;SDS011;25422;48.286;8.484;2023-05-29T01:08:44;13.63;;;6.80;;
39738;SDS011;25422;48.286;8.484;2023-05-29T01:11:12;9.75;;;6.80;;
39738;SDS011;25422;48.286;8.484;2023-05-29T01:14:05;13.63;;;7.38;;
39738;SDS011;25422;48.286;8.484;2023-05-29T01:16:37;12.10;;;7.03;;
39738;SDS011;25422;48.286;8.484;2023-05-29T01:19:26;14.02;;;7.90;;
39738;SDS011;25422;48.286;8.484;2023-05-29T01:28:01;15.63;;;7.60;;
39738;SDS011;25422;48.286;8.484;2023-05-29T01:30:30;15.85;;;7.70;;
39738;SDS011;25422;48.286;8.484;2023-05-29T01:32:57;13.63;;;7.57;;
39738;SDS011;25422;48.286;8.484;2023-05-29T01:35:24;11.70;;;7.40;;
39738;SDS011;25422;48.286;8.484;2023-05-29T01:37:53;13.13;;;8.30;;
39738;SDS011;25422;48.286;8.484;2023-05-29T01:40:18;12.30;;;7.40;;
39738;SDS011;25422;48.286;8.484;2023-05-29T01:42:43;14.40;;;7.57;;
39738;SDS011;25422;48.286;8.484;2023-05-29T01:45:10;11.23;;;7.80;;
39738;SDS011;25422;48.286;8.484;2023-05-29T01:47:37;14.65;;;7.53;;
39738;SDS011;25422;48.286;8.484;2023-05-29T01:50:03;13.15;;;7.45;;
39738;SDS011;25422;48.286;8.484;2023-05-29T01:52:29;13.65;;;7.03;;
39738;SDS011;25422;48.286;8.484;2023-05-29T01:54:55;13.48;;;7.20;;
39738;SDS011;25422;48.286;8.484;2023-05-29T01:57:21;12.50;;;6.82;;
39738;SDS011;25422;48.286;8.484;2023-05-29T01:59:47;13.50;;;6.60;;
39738;SDS011;25422;48.286;8.484;2023-05-29T02:02:13;11.27;;;7.00;;
39738;SDS011;25422;48.286;8.484;2023-05-29T02:04:38;12.73;;;6.95;;
39738;SDS011;25422;48.286;8.484;2023-05-29T02:07:04;10.50;;;6.70;;
39738;SDS011;25422;48.286;8.484;2023-05-29T02:09:30;12.85;;;6.72;;
39738;SDS011;25422;48.286;8.484;2023-05-29T02:11:56;13.07;;;6.70;;
39738;SDS011;25422;48.286;8.484;2023-05-29T02:14:21;9.80;;;6.18;;
39738;SDS011;25422;48.286;8.484;2023-05-29T02:16:51;10.95;;;6.22;;
39738;SDS011;25422;48.286;8.484;2023-05-29T02:19:20;10.93;;;6.70;;
39738;SDS011;25422;48.286;8.484;2023-05-29T02:21:46;9.48;;;6.10;;
39738;SDS011;25422;48.286;8.484;2023-05-29T02:24:12;10.23;;;6.78;;
39738;SDS011;25422;48.286;8.484;2023-05-29T02:26:39;12.27;;;6.15;;
39738;SDS011;25422;48.286;8.484;2023-05-29T02:29:05;9.43;;;6.30;;
39738;SDS011;25422;48.286;8.484;2023-05-29T02:31:30;10.20;;;6.72;;
39738;SDS011;25422;48.286;8.484;2023-05-29T02:33:56;11.18;;;6.35;;
39738;SDS011;25422;48.286;8.484;2023-05-29T02:36:21;14.45;;;6.70;;
39738;SDS011;25422;48.286;8.484;2023-05-29T02:38:47;10.38;;;6.20;;
39738;SDS011;25422;48.286;8.484;2023-05-29T02:41:12;9.23;;;5.88;;
39738;SDS011;25422;48.286;8.484;2023-05-29T02:43:37;8.38;;;5.38;;
39738;SDS011;25422;48.286;8.484;2023-05-29T02:46:03;10.35;;;5.93;;
39738;SDS011;25422;48.286;8.484;2023-05-29T02:48:28;10.27;;;5.47;;
39738;SDS011;25422;48.286;8.484;2023-05-29T02:50:54;12.48;;;6.10;;
39738;SDS011;25422;48.286;8.484;2023-05-29T02:53:19;10.48;;;6.20;;
39738;SDS011;25422;48.286;8.484;2023-05-29T02:55:45;11.40;;;6.57;;
39738;SDS011;25422;48.286;8.484;2023-05-29T02:58:12;11.27;;;6.40;;
39738;SDS011;25422;48.286;8.484;2023-05-29T03:00:37;10.95;;;6.82;;
39738;SDS011;25422;48.286;8.484;2023-05-29T03:03:03;11.13;;;7.13;;
39738;SDS011;25422;48.286;8.484;2023-05-29T03:05:29;10.38;;;6.60;;
39738;SDS011;25422;48.286;8.484;2023-05-29T03:07:55;11.05;;;6.30;;
39738;SDS011;25422;48.286;8.484;2023-05-29T03:10:20;10.82;;;6.47;;
39738;SDS011;25422;48.286;8.484;2023-05-29T03:12:46;9.30;;;6.30;;
39738;SDS011;25422;48.286;8.484;2023-05-29T03:15:12;12.50;;;6.95;;
39738;SDS011;25422;48.286;8.484;2023-05-29T03:17:37;17.00;;;7.50;;
39738;SDS011;25422;48.286;8.484;2023-05-29T03:20:05;14.70;;;6.78;;
39738;SDS011;25422;48.286;8.484;2023-05-29T03:22:34;12.52;;;7.05;;
39738;SDS011;25422;48.286;8.484;2023-05-29T03:25:01;9.73;;;6.55;;
39738;SDS011;25422;48.286;8.484;2023-05-29T03:27:30;11.50;;;6.75;;
39738;SDS011;25422;48.286;8.484;2023-05-29T03:30:04;14.20;;;7.90;;
39738;SDS011;25422;48.286;8.484;2023-05-29T03:32:31;9.38;;;6.65;;
39738;SDS011;25422;48.286;8.484;2023-05-29T03:34:58;13.48;;;6.75;;
39738;SDS011;25422;48.286;8.484;2023-05-29T03:37:23;10.55;;;7.03;;
39738;SDS011;25422;48.286;8.484;2023-05-29T03:39:50;11.18;;;6.47;;
39738;SDS011;25422;48.286;8.484;2023-05-29T03:42:16;11.80;;;5.90;;
39738;SDS011;25422;48.286;8.484;2023-05-29T03:44:43;10.48;;;6.25;;
39738;SDS011;25422;48.286;8.484;2023-05-29T03:47:10;9.98;;;5.72;;
39738;SDS011;25422;48.286;8.484;2023-05-29T03:49:36;12.00;;;6.38;;
39738;SDS011;25422;48.286;8.484;2023-05-29T03:52:02;12.20;;;6.68;;
39738;SDS011;25422;48.286;8.484;2023-05-29T03:54:28;9.55;;;6.00;;
39738;SDS011;25422;48.286;8.484;2023-05-29T03:56:54;10.63;;;6.45;;
39738;SDS011;25422;48.286;8.484;2023-05-29T03:59:20;12.93;;;6.85;;
39738;SDS011;25422;48.286;8.484;2023-05-29T04:01:46;12.13;;;7.05;;
39738;SDS011;25422;48.286;8.484;2023-05-29T04:04:13;12.10;;;6.22;;
39738;SDS011;25422;48.286;8.484;2023-05-29T04:06:38;11.73;;;6.38;;
39738;SDS011;25422;48.286;8.484;2023-05-29T04:09:04;12.52;;;6.63;;
39738;SDS011;25422;48.286;8.484;2023-05-29T04:11:34;13.88;;;7.43;;
39738;SDS011;25422;48.286;8.484;2023-05-29T04:14:00;13.38;;;7.43;;
39738;SDS011;25422;48.286;8.484;2023-05-29T04:16:27;14.05;;;7.18;;
39738;SDS011;25422;48.286;8.484;2023-05-29T04:18:53;9.15;;;6.30;;
39738;SDS011;25422;48.286;8.484;2023-05-29T04:21:20;11.57;;;6.57;;
39738;SDS011;25422;48.286;8.484;2023-05-29T04:23:46;10.93;;;6.88;;
39738;SDS011;25422;48.286;8.484;2023-05-29T04:26:12;11.30;;;6.35;;
39738;SDS011;25422;48.286;8.484;2023-05-29T04:28:38;13.18;;;6.88;;
39738;SDS011;25422;48.286;8.484;2023-05-29T04:31:05;13.40;;;6.28;;
39738;SDS011;25422;48.286;8.484;2023-05-29T04:33:31;11.60;;;6.68;;
39738;SDS011;25422;48.286;8.484;2023-05-29T04:35:57;14.18;;;7.25;;
39738;SDS011;25422;48.286;8.484;2023-05-29T04:38:26;10.73;;;6.95;;
39738;SDS011;25422;48.286;8.484;2023-05-29T04:40:53;13.25;;;6.57;;
39738;SDS011;25422;48.286;8.484;2023-05-29T04:43:23;9.63;;;6.38;;
39738;SDS011;25422;48.286;8.484;2023-05-29T04:46:01;9.23;;;5.63;;
39738;SDS011;25422;48.286;8.484;2023-05-29T04:48:27;8.70;;;5.85;;
39738;SDS011;25422;48.286;8.484;2023-05-29T04:50:53;11.05;;;5.97;;
39738;SDS011;25422;48.286;8.484;2023-05-29T04:53:18;9.07;;;5.50;;
39738;SDS011;25422;48.286;8.484;2023-05-29T04:55:45;10.73;;;6.50;;
39738;SDS011;25422;48.286;8.484;2023-05-29T04:58:10;8.32;;;5.75;;
39738;SDS011;25422;48.286;8.484;2023-05-29T05:00:38;9.90;;;5.78;;
39738;SDS011;25422;48.286;8.484;2023-05-29T05:03:03;8.85;;;5.53;;
39738;SDS011;25422;48.286;8.484;2023-05-29T05:05:29;9.10;;;5.65;;
39738;SDS011;25422;48.286;8.484;2023-05-29T05:07:57;8.13;;;5.30;;
39738;SDS011;25422;48.286;8.484;2023-05-29T05:10:23;8.32;;;5.60;;
39738;SDS011;25422;48.286;8.484;2023-05-29T05:12:48;9.27;;;5.35;;
39738;SDS011;25422;48.286;8.484;2023-05-29T05:15:16;7.93;;;5.03;;
39738;SDS011;25422;48.286;8.484;2023-05-29T05:17:42;7.40;;;5.13;;
39738;SDS011;25422;48.286;8.484;2023-05-29T05:20:08;10.07;;;5.50;;
39738;SDS011;25422;48.286;8.484;2023-05-29T05:22:34;8.50;;;4.82;;
39738;SDS011;25422;48.286;8.484;2023-05-29T05:25:00;6.55;;;4.90;;
39738;SDS011;25422;48.286;8.484;2023-05-29T05:27:26;8.57;;;4.88;;
39738;SDS011;25422;48.286;8.484;2023-05-29T05:29:52;9.45;;;4.90;;
39738;SDS011;25422;48.286;8.484;2023-05-29T05:32:18;6.75;;;4.82;;
39738;SDS011;25422;48.286;8.484;2023-05-29T05:34:46;8.45;;;5.30;;
39738;SDS011;25422;48.286;8.484;2023-05-29T05:37:12;9.30;;;4.65;;
39738;SDS011;25422;48.286;8.484;2023-05-29T05:39:40;7.55;;;4.90;;
39738;SDS011;25422;48.286;8.484;2023-05-29T05:42:05;7.63;;;4.60;;
39738;SDS011;25422;48.286;8.484;2023-05-29T05:44:51;7.72;;;4.70;;
39738;SDS011;25422;48.286;8.484;2023-05-29T05:47:16;8.57;;;4.78;;
39738;SDS011;25422;48.286;8.484;2023-05-29T05:49:42;6.60;;;4.30;;
39738;SDS011;25422;48.286;8.484;2023-05-29T05:52:08;7.05;;;4.55;;
39738;SDS011;25422;48.286;8.484;2023-05-29T05:54:34;7.68;;;4.07;;
39738;SDS011;25422;48.286;8.484;2023-05-29T05:57:00;8.23;;;4.85;;
39738;SDS011;25422;48.286;8.484;2023-05-29T05:59:26;5.78;;;4.15;;
39738;SDS011;25422;48.286;8.484;2023-05-29T06:01:52;5.85;;;4.38;;
39738;SDS011;25422;48.286;8.484;2023-05-29T06:04:18;7.95;;;4.55;;
39738;SDS011;25422;48.286;8.484;2023-05-29T06:06:44;6.70;;;4.00;;
39738;SDS011;25422;48.286;8.484;2023-05-29T06:09:09;7.35;;;4.45;;
39738;SDS011;25422;48.286;8.484;2023-05-29T06:11:36;6.93;;;4.30;;
39738;SDS011;25422;48.286;8.484;2023-05-29T06:14:03;7.32;;;4.20;;
39738;SDS011;25422;48.286;8.484;2023-05-29T06:16:29;7.53;;;4.28;;
39738;SDS011;25422;48.286;8.484;2023-05-29T06:18:55;6.03;;;4.32;;
39738;SDS011;25422;48.286;8.484;2023-05-29T06:21:22;6.82;;;4.75;;
39738;SDS011;25422;48.286;8.484;2023-05-29T06:23:52;10.00;;;4.95;;
39738;SDS011;25422;48.286;8.484;2023-05-29T06:26:17;7.40;;;4.28;;
39738;SDS011;25422;48.286;8.484;2023-05-29T06:28:43;6.95;;;4.78;;
39738;SDS011;25422;48.286;8.484;2023-05-29T06:31:08;8.35;;;4.60;;
39738;SDS011;25422;48.286;8.484;2023-05-29T06:33:35;7.38;;;4.47;;
39738;SDS011;25422;48.286;8.484;2023-05-29T06:36:01;7.00;;;4.07;;
39738;SDS011;25422;48.286;8.484;2023-05-29T06:38:26;6.90;;;3.85;;
39738;SDS011;25422;48.286;8.484;2023-05-29T06:40:51;9.82;;;4.25;;
39738;SDS011;25422;48.286;8.484;2023-05-29T06:43:17;6.70;;;3.97;;
39738;SDS011;25422;48.286;8.484;2023-05-29T06:45:47;10.18;;;4.80;;
39738;SDS011;25422;48.286;8.484;2023-05-29T06:48:12;6.88;;;4.43;;
39738;SDS011;25422;48.286;8.484;2023-05-29T06:50:39;9.52;;;4.55;;
39738;SDS011;25422;48.286;8.484;2023-05-29T06:53:24;7.70;;;4.20;;
39738;SDS011;25422;48.286;8.484;2023-05-29T06:55:52;5.32;;;3.83;;
39738;SDS011;25422;48.286;8.484;2023-05-29T06:58:18;7.40;;;4.43;;
39738;SDS011;25422;48.286;8.484;2023-05-29T07:00:43;5.50;;;3.88;;
39738;SDS011;25422;48.286;8.484;2023-05-29T07:03:27;6.68;;;3.92;;
39738;SDS011;25422;48.286;8.484;2023-05-29T07:05:53;7.57;;;4.30;;
39738;SDS011;25422;48.286;8.484;2023-05-29T07:08:19;6.40;;;4.32;;
39738;SDS011;25422;48.286;8.484;2023-05-29T07:10:45;7.25;;;4.43;;
39738;SDS011;25422;48.286;8.484;2023-05-29T07:13:14;9.40;;;4.25;;
39738;SDS011;25422;48.286;8.484;2023-05-29T07:18:05;6.93;;;3.85;;
39738;SDS011;25422;48.286;8.484;2023-05-29T07:20:31;5.55;;;3.97;;
39738;SDS011;25422;48.286;8.484;2023-05-29T07:22:57;6.75;;;4.07;;
39738;SDS011;25422;48.286;8.484;2023-05-29T07:25:33;8.23;;;4.30;;
39738;SDS011;25422;48.286;8.484;2023-05-29T07:27:58;10.10;;;4.45;;
39738;SDS011;25422;48.286;8.484;2023-05-29T07:30:24;8.20;;;3.67;;
39738;SDS011;25422;48.286;8.484;2023-05-29T07:32:51;9.13;;;4.25;;
39738;SDS011;25422;48.286;8.484;2023-05-29T07:35:17;6.75;;;4.03;;
39738;SDS011;25422;48.286;8.484;2023-05-29T07:37:43;5.95;;;4.32;;
39738;SDS011;25422;48.286;8.484;2023-05-29T07:40:12;6.43;;;4.40;;
39738;SDS011;25422;48.286;8.484;2023-05-29T07:42:56;7.05;;;4.13;;
39738;SDS011;25422;48.286;8.484;2023-05-29T07:45:24;9.00;;;4.68;;
39738;SDS011;25422;48.286;8.484;2023-05-29T07:47:49;8.30;;;4.45;;
39738;SDS011;25422;48.286;8.484;2023-05-29T07:50:16;6.70;;;4.20;;
39738;SDS011;25422;48.286;8.484;2023-05-29T07:52:44;9.85;;;4.28;;
39738;SDS011;25422;48.286;8.484;2023-05-29T07:55:09;8.68;;;4.03;;
39738;SDS011;25422;48.286;8.484;2023-05-29T07:57:36;8.98;;;4.30;;
39738;SDS011;25422;48.286;8.484;2023-05-29T08:00:03;7.60;;;4.28;;
39738;SDS011;25422;48.286;8.484;2023-05-29T08:02:34;7.03;;;4.30;;
39738;SDS011;25422;48.286;8.484;2023-05-29T08:05:24;7.18;;;4.05;;
39738;SDS011;25422;48.286;8.484;2023-05-29T08:07:50;6.75;;;4.13;;
39738;SDS011;25422;48.286;8.484;2023-05-29T08:10:16;8.13;;;4.18;;
39738;SDS011;25422;48.286;8.484;2023-05-29T08:12:42;8.50;;;4.32;;
39738;SDS011;25422;48.286;8.484;2023-05-29T08:15:07;5.13;;;3.92;;
39738;SDS011;25422;48.286;8.484;2023-05-29T08:17:35;6.75;;;4.45;;
39738;SDS011;25422;48.286;8.484;2023-05-29T08:20:00;7.45;;;4.30;;
39738;SDS011;25422;48.286;8.484;2023-05-29T08:22:29;7.20;;;4.47;;
39738;SDS011;25422;48.286;8.484;2023-05-29T08:24:57;7.55;;;4.20;;
39738;SDS011;25422;48.286;8.484;2023-05-29T08:27:22;7.25;;;4.50;;
39738;SDS011;25422;48.286;8.484;2023-05-29T08:29:48;8.98;;;4.13;;
39738;SDS011;25422;48.286;8.484;2023-05-29T08:32:13;7.78;;;4.38;;
39738;SDS011;25422;48.286;8.484;2023-05-29T08:34:38;7.20;;;4.35;;
39738;SDS011;25422;48.286;8.484;2023-05-29T08:37:04;6.63;;;4.50;;
39738;SDS011;25422;48.286;8.484;2023-05-29T08:39:30;9.52;;;4.68;;
39738;SDS011;25422;48.286;8.484;2023-05-29T08:44:26;6.65;;;4.40;;
39738;SDS011;25422;48.286;8.484;2023-05-29T08:49:21;7.53;;;4.05;;
39738;SDS011;25422;48.286;8.484;2023-05-29T08:51:47;8.82;;;4.45;;
39738;SDS011;25422;48.286;8.484;2023-05-29T08:54:19;6.65;;;4.03;;
39738;SDS011;25422;48.286;8.484;2023-05-29T08:56:45;11.35;;;4.85;;
39738;SDS011;25422;48.286;8.484;2023-05-29T08:59:11;7.45;;;4.53;;
39738;SDS011;25422;48.286;8.484;2023-05-29T09:01:37;7.63;;;4.53;;
39738;SDS011;25422;48.286;8.484;2023-05-29T09:04:04;6.53;;;4.13;;
39738;SDS011;25422;48.286;8.484;2023-05-29T09:06:30;6.90;;;4.32;;
39738;SDS011;25422;48.286;8.484;2023-05-29T09:08:55;5.72;;;4.05;;
39738;SDS011;25422;48.286;8.484;2023-05-29T09:11:22;7.50;;;4.60;;
39738;SDS011;25422;48.286;8.484;2023-05-29T09:13:48;6.97;;;4.05;;
39738;SDS011;25422;48.286;8.484;2023-05-29T09:16:15;7.45;;;4.28;;
39738;SDS011;25422;48.286;8.484;2023-05-29T09:18:42;7.68;;;4.78;;
39738;SDS011;25422;48.286;8.484;2023-05-29T09:21:10;7.10;;;4.43;;
39738;SDS011;25422;48.286;8.484;2023-05-29T09:23:51;8.30;;;4.13;;
39738;SDS011;25422;48.286;8.484;2023-05-29T09:26:17;6.80;;;4.22;;
39738;SDS011;25422;48.286;8.484;2023-05-29T09:28:42;9.73;;;5.00;;
39738;SDS011;25422;48.286;8.484;2023-05-29T09:31:14;7.60;;;4.70;;
39738;SDS011;25422;48.286;8.484;2023-05-29T09:33:48;8.73;;;4.85;;
39738;SDS011;25422;48.286;8.484;2023-05-29T09:36:21;9.27;;;4.75;;
39738;SDS011;25422;48.286;8.484;2023-05-29T09:38:47;7.22;;;4.38;;
39738;SDS011;25422;48.286;8.484;2023-05-29T09:41:13;9.00;;;4.93;;
39738;SDS011;25422;48.286;8.484;2023-05-29T09:43:45;9.38;;;4.80;;
39738;SDS011;25422;48.286;8.484;2023-05-29T09:46:12;9.25;;;4.47;;
39738;SDS011;25422;48.286;8.484;2023-05-29T09:48:41;6.68;;;4.65;;
39738;SDS011;25422;48.286;8.484;2023-05-29T09:51:07;8.27;;;4.47;;
39738;SDS011;25422;48.286;8.484;2023-05-29T09:53:48;8.00;;;4.68;;
39738;SDS011;25422;48.286;8.484;2023-05-29T09:56:15;6.35;;;4.30;;
39738;SDS011;25422;48.286;8.484;2023-05-29T09:58:43;7.18;;;4.88;;
39738;SDS011;25422;48.286;8.484;2023-05-29T10:01:13;7.65;;;4.70;;
39738;SDS011;25422;48.286;8.484;2023-05-29T10:03:41;9.32;;;4.60;;
39738;SDS011;25422;48.286;8.484;2023-05-29T10:06:07;7.75;;;4.53;;
39738;SDS011;25422;48.286;8.484;2023-05-29T10:08:44;6.43;;;4.32;;
39738;SDS011;25422;48.286;8.484;2023-05-29T10:11:14;5.72;;;4.18;;
39738;SDS011;25422;48.286;8.484;2023-05-29T10:13:46;7.70;;;4.88;;
39738;SDS011;25422;48.286;8.484;2023-05-29T10:16:14;10.70;;;4.83;;
39738;SDS011;25422;48.286;8.484;2023-05-29T10:18:44;6.97;;;4.70;;
39738;SDS011;25422;48.286;8.484;2023-05-29T10:21:15;9.80;;;4.57;;
39738;SDS011;25422;48.286;8.484;2023-05-29T10:23:43;7.72;;;4.80;;
39738;SDS011;25422;48.286;8.484;2023-05-29T10:26:14;7.60;;;4.93;;
39738;SDS011;25422;48.286;8.484;2023-05-29T10:28:49;6.60;;;4.45;;
39738;SDS011;25422;48.286;8.484;2023-05-29T10:31:24;8.00;;;4.57;;
39738;SDS011;25422;48.286;8.484;2023-05-29T10:36:24;9.02;;;5.15;;
39738;SDS011;25422;48.286;8.484;2023-05-29T10:38:53;7.40;;;5.28;;
39738;SDS011;25422;48.286;8.484;2023-05-29T10:43:56;7.45;;;5.05;;
39738;SDS011;25422;48.286;8.484;2023-05-29T10:49:16;6.38;;;4.07;;
39738;SDS011;25422;48.286;8.484;2023-05-29T10:51:43;8.05;;;4.50;;
39738;SDS011;25422;48.286;8.484;2023-05-29T10:54:08;7.57;;;4.90;;
39738;SDS011;25422;48.286;8.484;2023-05-29T10:56:34;7.40;;;4.50;;
39738;SDS011;25422;48.286;8.484;2023-05-29T10:59:00;8.25;;;4.60;;
39738;SDS011;25422;48.286;8.484;2023-05-29T11:01:27;6.20;;;4.70;;
39738;SDS011;25422;48.286;8.484;2023-05-29T11:06:45;7.15;;;4.55;;
39738;SDS011;25422;48.286;8.484;2023-05-29T11:09:27;6.93;;;4.45;;
39738;SDS011;25422;48.286;8.484;2023-05-29T11:14:44;8.52;;;4.45;;
39738;SDS011;25422;48.286;8.484;2023-05-29T11:19:56;5.90;;;4.40;;
39738;SDS011;25422;48.286;8.484;2023-05-29T11:22:23;5.65;;;4.18;;
39738;SDS011;25422;48.286;8.484;2023-05-29T11:24:56;6.05;;;4.18;;
39738;SDS011;25422;48.286;8.484;2023-05-29T11:27:23;6.90;;;4.43;;
39738;SDS011;25422;48.286;8.484;2023-05-29T11:29:49;7.22;;;4.32;;
39738;SDS011;25422;48.286;8.484;2023-05-29T11:32:18;8.23;;;4.40;;
39738;SDS011;25422;48.286;8.484;2023-05-29T11:34:46;7.88;;;4.47;;
39738;SDS011;25422;48.286;8.484;2023-05-29T11:37:14;6.72;;;4.60;;
39738;SDS011;25422;48.286;8.484;2023-05-29T11:39:39;6.50;;;4.53;;
39738;SDS011;25422;48.286;8.484;2023-05-29T11:42:07;7.10;;;4.40;;
39738;SDS011;25422;48.286;8.484;2023-05-29T11:44:33;5.63;;;4.07;;
39738;SDS011;25422;48.286;8.484;2023-05-29T11:49:34;7.15;;;4.50;;
39738;SDS011;25422;48.286;8.484;2023-05-29T11:52:07;7.40;;;4.50;;
39738;SDS011;25422;48.286;8.484;2023-05-29T11:54:39;6.87;;;4.17;;
39738;SDS011;25422;48.286;8.484;2023-05-29T11:57:11;5.85;;;4.03;;
39738;SDS011;25422;48.286;8.484;2023-05-29T11:59:42;5.82;;;4.28;;
39738;SDS011;25422;48.286;8.484;2023-05-29T12:02:08;5.75;;;4.30;;
39738;SDS011;25422;48.286;8.484;2023-05-29T12:04:33;6.40;;;4.38;;
39738;SDS011;25422;48.286;8.484;2023-05-29T12:06:58;8.63;;;4.13;;
39738;SDS011;25422;48.286;8.484;2023-05-29T12:09:26;9.23;;;4.80;;
39738;SDS011;25422;48.286;8.484;2023-05-29T12:12:02;9.32;;;4.15;;
39738;SDS011;25422;48.286;8.484;2023-05-29T12:14:28;7.90;;;4.15;;
39738;SDS011;25422;48.286;8.484;2023-05-29T12:16:54;9.05;;;4.45;;
39738;SDS011;25422;48.286;8.484;2023-05-29T12:19:19;7.85;;;4.13;;
39738;SDS011;25422;48.286;8.484;2023-05-29T12:21:45;6.40;;;4.15;;
39738;SDS011;25422;48.286;8.484;2023-05-29T12:24:11;8.60;;;4.10;;
39738;SDS011;25422;48.286;8.484;2023-05-29T12:26:36;9.55;;;4.63;;
39738;SDS011;25422;48.286;8.484;2023-05-29T12:29:05;7.53;;;4.20;;
39738;SDS011;25422;48.286;8.484;2023-05-29T12:31:31;5.25;;;3.67;;
39738;SDS011;25422;48.286;8.484;2023-05-29T12:34:01;8.07;;;4.13;;
39738;SDS011;25422;48.286;8.484;2023-05-29T12:36:43;6.45;;;4.05;;
39738;SDS011;25422;48.286;8.484;2023-05-29T12:39:09;8.73;;;4.50;;
39738;SDS011;25422;48.286;8.484;2023-05-29T12:41:35;5.32;;;4.03;;
39738;SDS011;25422;48.286;8.484;2023-05-29T12:44:02;5.05;;;3.72;;
39738;SDS011;25422;48.286;8.484;2023-05-29T12:46:34;5.68;;;3.85;;
39738;SDS011;25422;48.286;8.484;2023-05-29T12:51:43;7.68;;;4.22;;
39738;SDS011;25422;48.286;8.484;2023-05-29T12:54:10;6.47;;;3.75;;
39738;SDS011;25422;48.286;8.484;2023-05-29T12:56:36;7.93;;;3.85;;
39738;SDS011;25422;48.286;8.484;2023-05-29T12:59:04;4.93;;;3.63;;
39738;SDS011;25422;48.286;8.484;2023-05-29T13:01:29;6.57;;;3.70;;
39738;SDS011;25422;48.286;8.484;2023-05-29T13:03:55;8.57;;;3.83;;
39738;SDS011;25422;48.286;8.484;2023-05-29T13:06:21;6.38;;;3.85;;
39738;SDS011;25422;48.286;8.484;2023-05-29T13:08:46;6.88;;;3.90;;
39738;SDS011;25422;48.286;8.484;2023-05-29T13:11:12;6.35;;;3.95;;
39738;SDS011;25422;48.286;8.484;2023-05-29T13:13:37;6.97;;;4.00;;
39738;SDS011;25422;48.286;8.484;2023-05-29T13:16:02;6.70;;;3.75;;
39738;SDS011;25422;48.286;8.484;2023-05-29T13:18:28;7.20;;;3.92;;
39738;SDS011;25422;48.286;8.484;2023-05-29T13:20:53;6.60;;;4.38;;
39738;SDS011;25422;48.286;8.484;2023-05-29T13:23:19;7.43;;;3.67;;
39738;SDS011;25422;48.286;8.484;2023-05-29T13:25:45;4.90;;;3.50;;
39738;SDS011;25422;48.286;8.484;2023-05-29T13:28:13;6.07;;;4.20;;
39738;SDS011;25422;48.286;8.484;2023-05-29T13:30:38;6.88;;;3.95;;
39738;SDS011;25422;48.286;8.484;2023-05-29T13:33:04;8.95;;;4.07;;
39738;SDS011;25422;48.286;8.484;2023-05-29T13:35:29;6.40;;;3.58;;
39738;SDS011;25422;48.286;8.484;2023-05-29T13:37:55;7.00;;;3.72;;
39738;SDS011;25422;48.286;8.484;2023-05-29T13:40:20;6.53;;;4.20;;
39738;SDS011;25422;48.286;8.484;2023-05-29T13:42:45;6.97;;;3.70;;
39738;SDS011;25422;48.286;8.484;2023-05-29T13:45:11;6.05;;;3.85;;
39738;SDS011;25422;48.286;8.484;2023-05-29T13:47:37;7.15;;;4.00;;
39738;SDS011;25422;48.286;8.484;2023-05-29T13:50:03;7.43;;;3.88;;
39738;SDS011;25422;48.286;8.484;2023-05-29T13:52:29;7.97;;;4.13;;
39738;SDS011;25422;48.286;8.484;2023-05-29T13:54:54;10.20;;;4.32;;
39738;SDS011;25422;48.286;8.484;2023-05-29T13:57:20;5.70;;;4.00;;
39738;SDS011;25422;48.286;8.484;2023-05-29T13:59:45;7.95;;;4.40;;
39738;SDS011;25422;48.286;8.484;2023-05-29T14:02:11;6.03;;;3.65;;
39738;SDS011;25422;48.286;8.484;2023-05-29T14:04:37;6.30;;;3.88;;
39738;SDS011;25422;48.286;8.484;2023-05-29T14:07:03;7.40;;;3.70;;
39738;SDS011;25422;48.286;8.484;2023-05-29T14:09:29;6.15;;;3.80;;
39738;SDS011;25422;48.286;8.484;2023-05-29T14:11:55;8.35;;;4.03;;
39738;SDS011;25422;48.286;8.484;2023-05-29T14:14:21;7.47;;;3.90;;
39738;SDS011;25422;48.286;8.484;2023-05-29T14:16:47;4.47;;;3.60;;
39738;SDS011;25422;48.286;8.484;2023-05-29T14:19:14;6.75;;;3.90;;
39738;SDS011;25422;48.286;8.484;2023-05-29T14:21:39;7.38;;;3.70;;
39738;SDS011;25422;48.286;8.484;2023-05-29T14:24:05;6.50;;;3.75;;
39738;SDS011;25422;48.286;8.484;2023-05-29T14:26:30;7.90;;;4.10;;
39738;SDS011;25422;48.286;8.484;2023-05-29T14:28:56;7.20;;;3.97;;
39738;SDS011;25422;48.286;8.484;2023-05-29T14:31:21;9.52;;;3.88;;
39738;SDS011;25422;48.286;8.484;2023-05-29T14:33:47;7.63;;;4.28;;
39738;SDS011;25422;48.286;8.484;2023-05-29T14:36:12;5.43;;;3.70;;
39738;SDS011;25422;48.286;8.484;2023-05-29T14:38:37;6.60;;;3.72;;
39738;SDS011;25422;48.286;8.484;2023-05-29T14:41:03;9.05;;;4.00;;
39738;SDS011;25422;48.286;8.484;2023-05-29T14:43:28;7.85;;;3.83;;
39738;SDS011;25422;48.286;8.484;2023-05-29T14:45:54;5.35;;;3.53;;
39738;SDS011;25422;48.286;8.484;2023-05-29T14:48:19;6.80;;;3.88;;
39738;SDS011;25422;48.286;8.484;2023-05-29T14:50:45;7.80;;;4.15;;
39738;SDS011;25422;48.286;8.484;2023-05-29T14:53:10;5.93;;;4.13;;
39738;SDS011;25422;48.286;8.484;2023-05-29T14:55:35;9.13;;;4.13;;
39738;SDS011;25422;48.286;8.484;2023-05-29T14:58:06;4.70;;;3.55;;
39738;SDS011;25422;48.286;8.484;2023-05-29T15:00:31;6.10;;;3.60;;
39738;SDS011;25422;48.286;8.484;2023-05-29T15:02:57;6.97;;;3.83;;
39738;SDS011;25422;48.286;8.484;2023-05-29T15:05:27;8.13;;;4.05;;
39738;SDS011;25422;48.286;8.484;2023-05-29T15:07:53;7.40;;;3.65;;
39738;SDS011;25422;48.286;8.484;2023-05-29T15:10:22;7.35;;;3.78;;
39738;SDS011;25422;48.286;8.484;2023-05-29T15:12:49;5.93;;;3.65;;
39738;SDS011;25422;48.286;8.484;2023-05-29T15:15:22;7.68;;;4.25;;
39738;SDS011;25422;48.286;8.484;2023-05-29T15:17:51;6.70;;;3.95;;